createdAt,value
2022-10-05T00:02:39.399Z,10.94
2022-10-05T00:17:41.563Z,11.04
2022-10-05T00:32:43.616Z,11.26
2022-10-05T00:47:58.923Z,10.75
2022-10-05T01:03:27.307Z,11.56
2022-10-05T01:18:38.674Z,11.38
2022-10-05T01:33:42.814Z,11.04
2022-10-05T01:48:56.851Z,9.94
2022-10-05T02:04:01.838Z,9.91
2022-10-05T02:19:23.282Z,9.39
2022-10-05T02:34:27.964Z,8.88
2022-10-05T02:49:40.065Z,8.65
2022-10-05T03:04:51.235Z,8.60
2022-10-05T03:20:11.628Z,8.50
2022-10-05T03:35:19.794Z,8.51
2022-10-05T03:50:42.302Z,8.64
2022-10-05T04:05:50.890Z,9.12
2022-10-05T04:20:58.756Z,10.15
2022-10-05T04:36:01.151Z,9.89
2022-10-05T04:51:11.148Z,9.31
2022-10-05T05:06:31.974Z,9.11
2022-10-05T05:21:53.378Z,8.78
2022-10-05T05:36:55.660Z,8.69
2022-10-05T05:51:59.182Z,9.26
2022-10-05T06:07:02.029Z,11.47
2022-10-05T06:22:23.928Z,13.73
2022-10-05T06:37:34.019Z,15.88
2022-10-05T06:52:39.682Z,18.30
2022-10-05T07:07:52.449Z,17.73
2022-10-05T07:22:55.368Z,18.26
2022-10-05T07:37:58.611Z,19.08
2022-10-05T07:53:13.916Z,18.18
2022-10-05T08:08:18.209Z,19.16
2022-10-05T08:23:48.061Z,20.04
2022-10-05T08:38:50.220Z,21.04
2022-10-05T08:54:07.458Z,21.90
2022-10-05T09:09:18.598Z,22.55
2022-10-05T09:24:26.222Z,22.38
2022-10-05T09:39:32.911Z,21.96
2022-10-05T09:54:37.783Z,22.40
2022-10-05T10:09:39.643Z,21.72
2022-10-05T10:24:59.924Z,22.49
2022-10-05T10:40:20.702Z,22.94
2022-10-05T10:55:41.171Z,23.51
2022-10-05T11:10:49.036Z,23.66
2022-10-05T11:25:50.907Z,23.57
2022-10-05T11:41:04.943Z,23.78
2022-10-05T11:56:16.190Z,25.75
2022-10-05T12:11:30.163Z,24.66
2022-10-05T12:26:40.995Z,24.58
2022-10-05T12:41:45.171Z,24.85
2022-10-05T12:57:05.887Z,24.29
2022-10-05T13:12:12.032Z,22.64
2022-10-05T13:27:15.868Z,22.17
2022-10-05T13:42:36.085Z,21.83
2022-10-05T13:57:51.573Z,21.86
2022-10-05T14:12:53.937Z,21.65
2022-10-05T14:27:59.250Z,21.56
2022-10-05T14:43:16.458Z,21.53
2022-10-05T14:58:18.334Z,21.22
2022-10-05T15:13:32.410Z,20.80
2022-10-05T15:28:48.944Z,20.36
2022-10-05T15:44:01.975Z,19.66
2022-10-05T15:59:24.450Z,18.64
2022-10-05T16:14:41.711Z,18.16
2022-10-05T16:29:53.209Z,17.86
2022-10-05T16:44:55.459Z,17.55
2022-10-05T17:00:04.989Z,17.23
2022-10-05T17:15:10.242Z,16.75
2022-10-05T17:30:27.386Z,16.47
2022-10-05T17:45:29.336Z,15.96
2022-10-05T18:00:35.482Z,15.45
2022-10-05T18:15:43.812Z,15.40
2022-10-05T18:30:54.969Z,15.82
2022-10-05T18:46:03.641Z,15.70
2022-10-05T19:01:16.963Z,16.12
2022-10-05T19:16:22.568Z,16.44
2022-10-05T19:31:34.536Z,16.17
2022-10-05T19:46:36.413Z,16.05
2022-10-05T20:01:40.139Z,15.89
2022-10-05T20:17:00.983Z,15.55
2022-10-05T20:32:08.726Z,15.42
2022-10-05T20:47:10.706Z,15.09
2022-10-05T21:02:12.675Z,15.02
2022-10-05T21:17:14.682Z,14.97
2022-10-05T21:32:16.589Z,14.66
2022-10-05T21:47:18.526Z,14.49
2022-10-05T22:02:20.402Z,14.05
2022-10-05T22:17:27.290Z,14.42
2022-10-05T22:32:29.165Z,13.75
2022-10-05T22:47:31.038Z,13.62
2022-10-05T23:02:35.955Z,13.63
2022-10-05T23:17:39.190Z,13.65
2022-10-05T23:32:41.392Z,13.61
2022-10-05T23:47:43.301Z,13.94
